Time;durP1;ratioP1;P1;durP2;ratioP2;P2;SDS_P1;SDS_P2;PMS_P1;PMS_P2;Temp;Humidity;BMP_temperature;BMP_pressure;BME280_temperature;BME280_humidity;BME280_pressure;Samples;Min_cycle;Max_cycle;Signal;HPM_P1;HPM_P2
2021/07/28 00:01:50;;;;;;;12.85;7.05;;;17.30;99.90;;;;;;5067173;28;20020;-84
2021/07/28 00:04:16;;;;;;;11.65;7.18;;;17.30;99.90;;;;;;5074689;28;20135;-81
2021/07/28 00:06:43;;;;;;;12.70;7.32;;;17.20;99.90;;;;;;5080804;28;20730;-79
2021/07/28 00:09:08;;;;;;;13.23;7.30;;;17.20;99.90;;;;;;5073398;28;20032;-83
2021/07/28 00:11:34;;;;;;;11.75;7.00;;;17.20;99.90;;;;;;5066632;28;20059;-80
2021/07/28 00:14:00;;;;;;;12.32;7.07;;;17.20;99.90;;;;;;5068047;28;20109;-85
2021/07/28 00:16:26;;;;;;;10.27;6.68;;;17.20;99.90;;;;;;5075868;28;20020;-81
2021/07/28 00:19:06;;;;;;;11.00;7.18;;;17.20;99.90;;;;;;5070049;28;20121;-84
2021/07/28 00:24:16;;;;;;;11.20;7.70;;;17.20;99.90;;;;;;5075001;28;20110;-82
2021/07/28 00:26:42;;;;;;;11.95;7.85;;;17.30;99.90;;;;;;5070883;28;20028;-81
2021/07/28 00:29:08;;;;;;;10.55;6.90;;;;;;;;;;5072223;28;20041;-80
2021/07/28 00:31:33;;;;;;;12.63;7.40;;;17.10;99.90;;;;;;5076048;28;20032;-83
2021/07/28 00:33:59;;;;;;;11.68;6.72;;;18.30;99.90;;;;;;5065843;28;21207;-80
2021/07/28 00:36:25;;;;;;;11.18;6.95;;;;;;;;;;5080212;28;20029;-82
2021/07/28 00:38:51;;;;;;;15.77;8.25;;;;;;;;;;5077308;28;20028;-82
2021/07/28 00:41:16;;;;;;;12.95;7.82;;;17.10;99.90;;;;;;5068542;28;20159;-82
2021/07/28 00:43:42;;;;;;;11.75;7.03;;;;;;;;;;5066835;28;20025;-83
2021/07/28 00:46:08;;;;;;;11.55;7.32;;;17.20;99.90;;;;;;5070960;28;20474;-82
2021/07/28 00:48:35;;;;;;;10.30;7.18;;;17.20;99.90;;;;;;5067239;28;20071;-80
2021/07/28 00:51:01;;;;;;;11.30;7.20;;;17.20;99.90;;;;;;5076335;28;20040;-82
2021/07/28 00:53:27;;;;;;;10.32;7.32;;;17.20;99.90;;;;;;5067074;28;20063;-81
2021/07/28 00:55:54;;;;;;;10.93;7.35;;;17.20;99.90;;;;;;5071848;28;20028;-84
2021/07/28 00:58:21;;;;;;;12.98;7.35;;;17.20;99.90;;;;;;5064616;28;20021;-83
2021/07/28 01:00:47;;;;;;;11.43;7.05;;;17.10;99.90;;;;;;5069491;28;20024;-82
2021/07/28 01:03:14;;;;;;;13.45;7.55;;;17.00;99.90;;;;;;5076033;28;20029;-83
2021/07/28 01:05:40;;;;;;;12.18;8.02;;;17.60;99.90;;;;;;5067900;28;20035;-82
2021/07/28 01:08:06;;;;;;;11.35;7.35;;;17.10;99.90;;;;;;5070513;28;20032;-82
2021/07/28 01:10:32;;;;;;;11.77;7.03;;;17.10;99.90;;;;;;5066345;28;20032;-84
2021/07/28 01:12:58;;;;;;;12.65;7.38;;;17.10;99.90;;;;;;5065366;28;20119;-80
2021/07/28 01:18:04;;;;;;;9.88;6.82;;;17.10;99.90;;;;;;5074127;28;20571;-81
2021/07/28 01:20:38;;;;;;;11.60;7.25;;;17.10;99.90;;;;;;5070765;28;20402;-80
2021/07/28 01:23:07;;;;;;;11.02;7.82;;;17.10;99.90;;;;;;5069865;28;20029;-82
2021/07/28 01:25:34;;;;;;;13.13;6.95;;;17.10;99.90;;;;;;5069797;28;20584;-83
2021/07/28 01:28:01;;;;;;;8.85;6.35;;;17.00;99.90;;;;;;5067980;28;20038;-82
2021/07/28 01:30:27;;;;;;;10.10;6.50;;;17.00;99.90;;;;;;5063243;28;20032;-79
2021/07/28 01:32:54;;;;;;;10.73;6.90;;;17.90;99.90;;;;;;5072441;28;20028;-85
2021/07/28 01:35:21;;;;;;;9.50;6.20;;;16.90;99.90;;;;;;5081001;28;20066;-82
2021/07/28 01:37:47;;;;;;;12.25;6.05;;;17.20;99.90;;;;;;5074988;28;20020;-83
2021/07/28 01:40:13;;;;;;;11.57;7.15;;;16.80;99.90;;;;;;5071322;28;20035;-80
2021/07/28 01:42:41;;;;;;;9.73;6.22;;;17.30;99.90;;;;;;5077430;28;20028;-81
2021/07/28 01:45:07;;;;;;;9.95;6.22;;;17.00;99.90;;;;;;5077310;28;20479;-82
2021/07/28 01:47:32;;;;;;;9.25;5.97;;;16.90;99.90;;;;;;5077406;28;20056;-82
2021/07/28 01:49:58;;;;;;;9.65;6.10;;;16.90;99.90;;;;;;5066008;28;20032;-83
2021/07/28 01:52:23;;;;;;;10.43;5.95;;;16.90;99.90;;;;;;5076008;28;20486;-80
2021/07/28 01:54:49;;;;;;;8.07;5.18;;;16.90;99.90;;;;;;5069911;28;20024;-82
2021/07/28 01:57:14;;;;;;;10.63;6.10;;;17.00;99.90;;;;;;5078104;28;20016;-82
2021/07/28 01:59:40;;;;;;;7.60;5.30;;;17.00;99.90;;;;;;5080949;28;20025;-82
2021/07/28 02:02:06;;;;;;;9.23;5.75;;;17.00;99.90;;;;;;5075647;28;20509;-81
2021/07/28 02:04:32;;;;;;;8.25;5.40;;;18.40;99.90;;;;;;5082749;28;20039;-79
2021/07/28 02:06:57;;;;;;;9.52;6.32;;;16.90;99.90;;;;;;5074303;28;20039;-81
2021/07/28 02:09:23;;;;;;;10.93;6.05;;;17.00;99.90;;;;;;5081610;28;20141;-82
2021/07/28 02:11:49;;;;;;;8.50;5.82;;;17.00;99.90;;;;;;5082111;28;20036;-81
2021/07/28 02:14:14;;;;;;;11.82;6.13;;;16.90;99.90;;;;;;5076868;28;20025;-81
2021/07/28 02:16:40;;;;;;;8.88;4.97;;;16.80;99.90;;;;;;5091260;28;20056;-81
2021/07/28 02:19:07;;;;;;;12.00;5.53;;;16.90;99.90;;;;;;5070811;28;20123;-81
2021/07/28 02:21:33;;;;;;;9.98;5.90;;;17.00;99.90;;;;;;5074868;28;20481;-82
2021/07/28 02:23:59;;;;;;;9.55;5.25;;;16.90;99.90;;;;;;5075275;28;20037;-83
2021/07/28 02:26:25;;;;;;;9.30;5.93;;;18.10;99.90;;;;;;5074525;28;20397;-83
2021/07/28 02:28:52;;;;;;;9.10;6.07;;;16.90;99.90;;;;;;5076608;28;20032;-83
2021/07/28 02:31:18;;;;;;;8.10;5.15;;;16.90;99.90;;;;;;5075734;28;20035;-83
2021/07/28 02:33:43;;;;;;;8.77;5.40;;;16.80;99.90;;;;;;5080823;28;20687;-83
2021/07/28 02:36:09;;;;;;;10.30;5.75;;;16.80;99.90;;;;;;5078115;28;20032;-82
2021/07/28 02:38:35;;;;;;;8.70;5.45;;;16.80;99.90;;;;;;5078691;28;20028;-83
2021/07/28 02:41:01;;;;;;;8.65;5.47;;;16.90;99.90;;;;;;5078358;28;20092;-81
2021/07/28 02:43:27;;;;;;;11.48;6.28;;;18.10;99.90;;;;;;5075429;28;20063;-81
2021/07/28 02:45:52;;;;;;;6.68;5.05;;;17.10;99.90;;;;;;5075196;28;20032;-83
2021/07/28 02:48:18;;;;;;;9.07;5.43;;;16.80;99.90;;;;;;5079772;28;20113;-83
2021/07/28 02:50:43;;;;;;;11.32;5.57;;;16.80;99.90;;;;;;5081247;28;20036;-81
2021/07/28 02:53:09;;;;;;;11.73;6.90;;;16.90;99.90;;;;;;5079821;28;20032;-81
2021/07/28 02:55:35;;;;;;;12.18;5.43;;;18.10;99.90;;;;;;5092605;28;20551;-84
2021/07/28 02:58:00;;;;;;;8.95;5.15;;;17.20;99.90;;;;;;5082523;28;20060;-83
2021/07/28 03:00:26;;;;;;;7.65;5.32;;;16.90;99.90;;;;;;5075670;28;20023;-82
2021/07/28 03:02:54;;;;;;;9.50;6.00;;;17.40;99.90;;;;;;5080548;28;20024;-84
2021/07/28 03:05:20;;;;;;;11.25;6.28;;;16.80;99.90;;;;;;5075723;28;20024;-84
2021/07/28 03:07:45;;;;;;;8.38;6.00;;;16.70;99.90;;;;;;5080204;28;20032;-82
2021/07/28 03:10:11;;;;;;;10.63;5.88;;;16.70;99.90;;;;;;5074827;28;20063;-84
2021/07/28 03:12:37;;;;;;;12.45;5.60;;;16.80;99.90;;;;;;5071921;28;20101;-85
2021/07/28 03:15:04;;;;;;;10.80;6.10;;;16.80;99.90;;;;;;5066440;28;20041;-82
2021/07/28 03:17:29;;;;;;;8.52;5.70;;;16.80;99.90;;;;;;5065853;28;20111;-84
2021/07/28 03:19:55;;;;;;;9.43;5.85;;;18.50;99.90;;;;;;5072695;28;20102;-82
2021/07/28 03:22:20;;;;;;;13.43;6.07;;;16.80;99.90;;;;;;5074314;28;20024;-81
2021/07/28 03:24:46;;;;;;;7.78;5.35;;;16.90;99.90;;;;;;5073629;28;20036;-83
2021/07/28 03:27:12;;;;;;;10.50;5.97;;;16.80;99.90;;;;;;5077189;28;20031;-82
2021/07/28 03:29:37;;;;;;;11.15;6.03;;;16.80;99.90;;;;;;5076381;28;20027;-83
2021/07/28 03:32:03;;;;;;;11.80;6.28;;;16.70;99.90;;;;;;5069282;28;20326;-81
2021/07/28 03:34:29;;;;;;;9.95;6.07;;;16.70;99.90;;;;;;5077368;28;20029;-83
2021/07/28 03:36:54;;;;;;;12.75;5.95;;;16.70;99.90;;;;;;5073172;28;20020;-82
2021/07/28 03:39:20;;;;;;;12.13;7.28;;;16.70;99.90;;;;;;5073950;28;20024;-82
2021/07/28 03:41:46;;;;;;;15.00;6.32;;;17.50;99.90;;;;;;5065035;28;20123;-83
2021/07/28 03:44:11;;;;;;;11.65;6.00;;;17.50;99.90;;;;;;5069427;28;20033;-86
2021/07/28 03:46:37;;;;;;;9.10;5.43;;;16.80;99.90;;;;;;5071051;28;20038;-84
2021/07/28 03:49:02;;;;;;;9.65;5.57;;;18.00;99.90;;;;;;5074957;28;20505;-81
2021/07/28 03:51:28;;;;;;;10.25;6.25;;;16.90;99.90;;;;;;5073316;28;20032;-79
2021/07/28 03:53:53;;;;;;;11.60;6.13;;;16.80;99.90;;;;;;5074228;28;20573;-81
2021/07/28 03:56:23;;;;;;;11.50;5.53;;;17.30;99.90;;;;;;5067683;28;20402;-80
2021/07/28 03:58:53;;;;;;;8.25;5.82;;;16.80;99.90;;;;;;5070912;28;20020;-81
2021/07/28 04:01:20;;;;;;;10.68;6.13;;;16.80;99.90;;;;;;5077406;28;20436;-80
2021/07/28 04:03:46;;;;;;;8.98;6.15;;;16.80;99.90;;;;;;5075720;28;20055;-83
2021/07/28 04:06:11;;;;;;;11.52;5.80;;;16.80;99.90;;;;;;5073702;28;20082;-84
2021/07/28 04:08:37;;;;;;;9.80;6.60;;;16.70;99.90;;;;;;5073281;28;20029;-78
2021/07/28 04:11:03;;;;;;;8.85;5.95;;;17.50;99.90;;;;;;5069452;28;20020;-85
2021/07/28 04:13:28;;;;;;;11.65;6.25;;;17.20;99.90;;;;;;5069010;28;20024;-84
2021/07/28 04:15:54;;;;;;;14.25;6.25;;;16.80;99.90;;;;;;5072637;28;20037;-84
2021/07/28 04:18:19;;;;;;;9.35;6.00;;;18.10;99.90;;;;;;5067285;28;20021;-83
2021/07/28 04:20:45;;;;;;;10.27;5.80;;;16.80;99.90;;;;;;5069332;28;20100;-83
2021/07/28 04:23:10;;;;;;;11.48;6.30;;;17.70;99.90;;;;;;5072248;28;20442;-84
2021/07/28 04:25:36;;;;;;;11.25;5.95;;;16.90;99.90;;;;;;5075145;28;20025;-82
2021/07/28 04:28:02;;;;;;;9.32;5.72;;;;;;;;;;5070860;28;20039;-83
2021/07/28 04:30:28;;;;;;;11.25;6.43;;;16.90;99.90;;;;;;5063651;28;20025;-84
2021/07/28 04:32:53;;;;;;;8.32;5.82;;;17.00;99.90;;;;;;5070103;28;20497;-84
2021/07/28 04:35:19;;;;;;;8.32;5.43;;;18.00;99.90;;;;;;5071723;28;20025;-82
2021/07/28 04:37:44;;;;;;;10.65;6.60;;;17.00;99.90;;;;;;5070254;28;20035;-81
2021/07/28 04:40:11;;;;;;;14.20;6.65;;;16.90;99.90;;;;;;5064845;28;20064;-81
2021/07/28 04:42:37;;;;;;;15.63;7.03;;;16.90;99.90;;;;;;5072871;28;20043;-83
2021/07/28 04:45:04;;;;;;;10.25;6.32;;;17.00;99.90;;;;;;5068745;28;20032;-84
2021/07/28 04:47:30;;;;;;;9.48;6.57;;;17.00;99.90;;;;;;5075065;28;20429;-84
2021/07/28 04:49:55;;;;;;;10.68;6.05;;;18.70;99.90;;;;;;5074989;28;20028;-86
2021/07/28 04:52:24;;;;;;;11.68;6.50;;;17.00;99.90;;;;;;5074975;28;20124;-83
2021/07/28 04:54:53;;;;;;;12.63;6.30;;;16.70;99.90;;;;;;5072838;28;20044;-81
2021/07/28 04:57:20;;;;;;;9.27;6.63;;;17.00;99.90;;;;;;5070131;28;20072;-84
2021/07/28 04:59:46;;;;;;;10.45;6.30;;;18.10;99.90;;;;;;5074387;28;20040;-84
2021/07/28 05:02:11;;;;;;;10.20;6.07;;;17.10;99.90;;;;;;5073583;28;20028;-81
2021/07/28 05:04:38;;;;;;;14.65;8.80;;;;;;;;;;5076299;28;20027;-84
2021/07/28 05:07:03;;;;;;;16.80;7.40;;;17.10;99.90;;;;;;5069319;28;20082;-81
2021/07/28 05:09:29;;;;;;;11.30;6.47;;;17.10;99.90;;;;;;5067309;28;20036;-84
2021/07/28 05:11:55;;;;;;;10.27;6.47;;;17.10;99.90;;;;;;5074890;28;20032;-84
2021/07/28 05:14:20;;;;;;;10.63;6.78;;;17.80;99.90;;;;;;5071907;28;20051;-83
2021/07/28 05:16:46;;;;;;;14.90;7.05;;;17.20;99.90;;;;;;5069221;28;20037;-81
2021/07/28 05:19:11;;;;;;;11.35;6.68;;;17.10;99.90;;;;;;5076948;28;20025;-82
2021/07/28 05:21:37;;;;;;;11.52;7.28;;;17.20;99.90;;;;;;5075577;28;20099;-83
2021/07/28 05:24:03;;;;;;;11.63;7.00;;;17.30;99.90;;;;;;5080898;28;20044;-84
2021/07/28 05:26:29;;;;;;;14.77;6.93;;;17.30;99.90;;;;;;5076584;28;20060;-83
2021/07/28 05:28:55;;;;;;;11.13;7.00;;;17.40;99.90;;;;;;5077349;28;20031;-82
2021/07/28 05:31:20;;;;;;;11.88;6.78;;;17.40;99.90;;;;;;5079873;28;20529;-82
2021/07/28 05:33:46;;;;;;;14.35;7.75;;;17.40;99.90;;;;;;5078365;28;20498;-83
2021/07/28 05:36:11;;;;;;;11.68;6.78;;;17.80;99.90;;;;;;5076469;28;20047;-81
2021/07/28 05:38:37;;;;;;;9.48;5.95;;;17.30;99.90;;;;;;5080499;28;20021;-82
2021/07/28 05:41:04;;;;;;;10.68;6.60;;;17.50;99.90;;;;;;5076708;28;20402;-80
2021/07/28 05:43:29;;;;;;;13.00;7.47;;;17.40;99.90;;;;;;5067341;28;20021;-83
2021/07/28 05:45:55;;;;;;;13.30;6.95;;;17.40;99.90;;;;;;5067973;28;20095;-82
2021/07/28 05:48:20;;;;;;;11.90;7.15;;;19.00;99.90;;;;;;5067992;28;20112;-83
2021/07/28 05:50:46;;;;;;;15.95;6.65;;;17.50;99.90;;;;;;5074965;28;20040;-85
2021/07/28 05:53:12;;;;;;;10.65;6.80;;;17.50;99.90;;;;;;5076669;28;20024;-82
2021/07/28 05:55:37;;;;;;;11.88;8.20;;;17.50;99.90;;;;;;5071498;28;20166;-82
2021/07/28 05:58:03;;;;;;;13.23;7.30;;;18.20;99.90;;;;;;5072008;28;20094;-83
2021/07/28 06:00:29;;;;;;;12.20;6.78;;;18.30;99.90;;;;;;5070013;28;20073;-86
2021/07/28 06:02:55;;;;;;;10.90;7.28;;;17.70;99.90;;;;;;5069755;28;20048;-80
2021/07/28 06:05:20;;;;;;;10.15;6.72;;;17.50;99.90;;;;;;5067218;28;20029;-85
2021/07/28 06:07:46;;;;;;;11.30;6.68;;;17.50;99.90;;;;;;5070145;28;20031;-83
2021/07/28 06:10:14;;;;;;;11.02;7.35;;;17.50;99.90;;;;;;5068079;28;20090;-82
2021/07/28 06:12:40;;;;;;;9.93;6.93;;;17.50;99.90;;;;;;5072605;28;20039;-85
2021/07/28 06:15:06;;;;;;;10.90;7.13;;;17.50;99.90;;;;;;5067572;28;20119;-84
2021/07/28 06:17:31;;;;;;;14.05;6.60;;;17.60;99.90;;;;;;5063845;28;20029;-84
2021/07/28 06:19:57;;;;;;;10.32;6.90;;;17.60;99.90;;;;;;5064361;28;20025;-84
2021/07/28 06:22:23;;;;;;;10.57;6.93;;;17.60;99.90;;;;;;5067347;28;20133;-83
2021/07/28 06:24:50;;;;;;;9.05;6.25;;;17.80;99.90;;;;;;5070830;28;20028;-83
2021/07/28 06:27:16;;;;;;;9.55;6.50;;;17.80;99.90;;;;;;5067081;28;20025;-82
2021/07/28 06:29:42;;;;;;;10.95;6.72;;;;;;;;;;5062165;28;20039;-84
2021/07/28 06:32:08;;;;;;;11.20;6.80;;;;;;;;;;5071715;28;20031;-87
2021/07/28 06:34:34;;;;;;;9.38;6.53;;;;;;;;;;5077204;28;20020;-82
2021/07/28 06:37:00;;;;;;;10.35;6.75;;;17.90;99.90;;;;;;5072824;28;20037;-82
2021/07/28 06:39:26;;;;;;;10.27;6.57;;;18.10;99.90;;;;;;5069583;28;20044;-82
2021/07/28 06:41:52;;;;;;;9.10;6.43;;;18.10;99.90;;;;;;5068107;28;20032;-82
2021/07/28 06:44:17;;;;;;;11.68;6.25;;;18.00;99.90;;;;;;5071025;28;20029;-82
2021/07/28 06:46:43;;;;;;;12.70;6.85;;;18.00;99.90;;;;;;5068755;28;20119;-81
2021/07/28 06:49:08;;;;;;;10.70;6.55;;;18.10;99.90;;;;;;5075584;28;20075;-83
2021/07/28 06:51:34;;;;;;;10.80;6.57;;;18.10;99.90;;;;;;5069088;28;20026;-82
2021/07/28 06:54:00;;;;;;;10.77;6.93;;;18.10;99.90;;;;;;5075107;28;20510;-79
2021/07/28 06:56:25;;;;;;;10.13;6.13;;;18.20;99.90;;;;;;5076894;28;20478;-85
2021/07/28 06:58:51;;;;;;;11.30;6.65;;;18.10;99.90;;;;;;5071308;28;20017;-83
2021/07/28 07:01:17;;;;;;;10.90;6.57;;;18.20;99.90;;;;;;5075383;28;20025;-81
2021/07/28 07:03:42;;;;;;;10.77;6.60;;;18.20;99.90;;;;;;5068038;28;20512;-82
2021/07/28 07:06:08;;;;;;;10.20;6.38;;;18.20;99.90;;;;;;5071541;28;20032;-84
2021/07/28 07:08:34;;;;;;;10.75;6.38;;;18.20;99.90;;;;;;5068902;28;20024;-81
2021/07/28 07:11:00;;;;;;;9.73;7.22;;;;;;;;;;5070073;28;20060;-83
2021/07/28 07:13:26;;;;;;;11.30;6.97;;;18.30;99.90;;;;;;5072687;28;20593;-84
2021/07/28 07:15:51;;;;;;;11.05;7.05;;;18.30;99.90;;;;;;5064406;28;20111;-82
2021/07/28 07:18:17;;;;;;;10.30;6.85;;;18.20;99.90;;;;;;5061940;28;20020;-81
2021/07/28 07:20:43;;;;;;;11.70;6.53;;;19.40;99.90;;;;;;5065339;28;20025;-80
2021/07/28 07:23:09;;;;;;;9.98;6.38;;;18.40;99.90;;;;;;5063763;28;20203;-84
2021/07/28 07:25:35;;;;;;;11.57;6.72;;;18.40;99.90;;;;;;5065865;28;20033;-84
2021/07/28 07:28:04;;;;;;;11.10;6.72;;;18.40;99.90;;;;;;5064059;28;20636;-81
2021/07/28 07:30:30;;;;;;;17.58;7.60;;;18.40;99.90;;;;;;5069828;28;20025;-85
2021/07/28 07:35:40;;;;;;;10.52;6.43;;;18.50;99.90;;;;;;5072064;28;20092;-85
2021/07/28 07:38:06;;;;;;;9.65;6.57;;;18.70;99.90;;;;;;5067166;28;20028;-82
2021/07/28 07:40:31;;;;;;;10.40;6.60;;;18.70;99.90;;;;;;5065465;28;20050;-83
2021/07/28 07:42:57;;;;;;;10.10;6.55;;;18.70;99.90;;;;;;5065699;28;20024;-85
2021/07/28 07:45:22;;;;;;;11.50;6.82;;;18.80;99.90;;;;;;5069262;28;20082;-82
2021/07/28 07:47:48;;;;;;;10.73;6.97;;;18.90;99.90;;;;;;5069080;28;20021;-83
2021/07/28 07:50:14;;;;;;;10.65;6.55;;;18.80;99.90;;;;;;5068870;28;20550;-83
2021/07/28 07:52:39;;;;;;;11.30;6.50;;;18.80;99.90;;;;;;5070577;28;20034;-84
2021/07/28 07:55:05;;;;;;;13.35;7.47;;;18.80;99.90;;;;;;5072081;28;20029;-81
2021/07/28 07:57:32;;;;;;;17.75;8.52;;;18.90;99.90;;;;;;5067729;28;20120;-80
2021/07/28 07:59:58;;;;;;;11.88;6.88;;;19.00;99.90;;;;;;5065599;28;20040;-83
2021/07/28 08:02:23;;;;;;;10.00;6.55;;;18.90;99.90;;;;;;5065233;28;20025;-84
2021/07/28 08:04:49;;;;;;;11.38;7.07;;;19.10;99.90;;;;;;5061133;28;20021;-82
2021/07/28 08:07:15;;;;;;;9.10;6.65;;;19.00;99.90;;;;;;5064157;28;20103;-82
2021/07/28 08:09:40;;;;;;;9.55;6.70;;;19.20;99.90;;;;;;5060779;28;20028;-84
2021/07/28 08:12:06;;;;;;;9.00;6.82;;;19.30;99.90;;;;;;5063546;28;20024;-83
2021/07/28 08:14:32;;;;;;;10.63;6.88;;;19.40;99.90;;;;;;5069633;28;20066;-83
2021/07/28 08:16:57;;;;;;;8.93;6.70;;;19.50;99.90;;;;;;5069693;28;20029;-83
2021/07/28 08:19:23;;;;;;;11.57;7.43;;;19.50;99.90;;;;;;5072712;28;20031;-83
2021/07/28 08:21:49;;;;;;;9.68;6.82;;;19.70;99.90;;;;;;5064237;28;20025;-82
2021/07/28 08:24:16;;;;;;;13.95;7.13;;;21.90;99.90;;;;;;5069236;28;20021;-83
2021/07/28 08:26:41;;;;;;;8.90;6.50;;;19.70;99.90;;;;;;5068799;28;20044;-84
2021/07/28 08:29:07;;;;;;;9.40;6.80;;;19.70;99.90;;;;;;5068970;28;20028;-83
2021/07/28 08:31:33;;;;;;;18.88;7.55;;;19.70;99.90;;;;;;5067294;28;20045;-82
2021/07/28 08:33:58;;;;;;;10.48;6.53;;;19.80;99.90;;;;;;5063455;28;20279;-85
2021/07/28 08:36:25;;;;;;;20.25;7.45;;;19.90;99.90;;;;;;5072122;28;20071;-83
2021/07/28 08:38:50;;;;;;;17.65;6.80;;;20.00;99.90;;;;;;5071102;28;20156;-80
2021/07/28 08:41:19;;;;;;;10.30;6.45;;;20.20;99.90;;;;;;5065352;28;20067;-82
2021/07/28 08:43:50;;;;;;;7.82;5.80;;;20.20;99.90;;;;;;5064143;28;20029;-83
2021/07/28 08:46:17;;;;;;;9.52;6.40;;;20.10;99.90;;;;;;5067024;28;20029;-82
2021/07/28 08:48:46;;;;;;;8.77;5.72;;;19.90;99.90;;;;;;5069434;28;20135;-85
2021/07/28 08:51:11;;;;;;;8.75;5.45;;;19.90;99.90;;;;;;5065891;28;20143;-85
2021/07/28 08:53:37;;;;;;;9.65;6.28;;;20.00;99.90;;;;;;5065195;28;20462;-85
2021/07/28 08:56:03;;;;;;;8.00;5.65;;;19.80;99.90;;;;;;5066640;28;20036;-84
2021/07/28 08:58:29;;;;;;;8.52;6.55;;;19.70;99.90;;;;;;5064561;28;20029;-84
2021/07/28 09:00:55;;;;;;;9.38;6.38;;;19.70;99.90;;;;;;5061186;28;20475;-83
2021/07/28 09:03:21;;;;;;;9.70;6.00;;;20.60;99.90;;;;;;5067260;28;20027;-85
2021/07/28 09:05:49;;;;;;;10.25;5.97;;;19.70;99.90;;;;;;5061639;28;20032;-86
2021/07/28 09:08:27;;;;;;;11.02;6.57;;;20.20;99.90;;;;;;5061354;28;20055;-83
2021/07/28 09:11:13;;;;;;;16.80;6.38;;;19.80;99.90;;;;;;5064090;28;20123;-83
2021/07/28 09:13:43;;;;;;;18.50;6.57;;;19.80;99.90;;;;;;5061660;28;20502;-84
2021/07/28 09:16:10;;;;;;;18.30;6.90;;;19.80;99.90;;;;;;5066234;28;20056;-85
2021/07/28 09:18:52;;;;;;;9.60;5.82;;;20.00;99.90;;;;;;5064217;28;20071;-84
2021/07/28 09:21:21;;;;;;;9.38;5.80;;;20.10;99.90;;;;;;5065205;28;20032;-83
2021/07/28 09:23:49;;;;;;;11.82;6.53;;;20.10;99.90;;;;;;5064073;28;20204;-82
2021/07/28 09:26:38;;;;;;;15.82;6.78;;;20.10;99.90;;;;;;5065817;28;20029;-84
2021/07/28 09:29:08;;;;;;;20.00;7.18;;;20.20;99.90;;;;;;5066324;28;20040;-83
2021/07/28 09:31:51;;;;;;;10.18;5.80;;;20.10;99.90;;;;;;5066470;28;22204;-82
2021/07/28 09:34:23;;;;;;;9.10;5.78;;;20.20;99.90;;;;;;5061281;28;20029;-84
2021/07/28 09:36:57;;;;;;;8.70;5.63;;;20.20;99.90;;;;;;5069258;28;20032;-83
2021/07/28 09:39:26;;;;;;;9.38;5.35;;;20.50;99.90;;;;;;5062109;28;20029;-84
2021/07/28 09:41:53;;;;;;;7.63;5.60;;;20.60;99.90;;;;;;5059956;28;20071;-84
2021/07/28 09:44:30;;;;;;;7.20;5.25;;;20.70;99.90;;;;;;5066927;28;20036;-83
2021/07/28 09:47:03;;;;;;;9.10;4.78;;;20.90;99.90;;;;;;5060843;28;20041;-80
2021/07/28 09:49:29;;;;;;;5.88;4.38;;;20.90;99.90;;;;;;5064544;28;20048;-85
2021/07/28 09:51:54;;;;;;;4.75;3.55;;;21.00;99.90;;;;;;5067319;28;20375;-84
2021/07/28 09:54:20;;;;;;;5.32;3.92;;;21.10;99.90;;;;;;5060582;28;20514;-84
2021/07/28 09:56:49;;;;;;;5.63;3.70;;;21.10;99.90;;;;;;5066021;28;20033;-84
2021/07/28 09:59:16;;;;;;;5.38;3.58;;;22.50;99.90;;;;;;5066085;28;20033;-83
2021/07/28 10:01:46;;;;;;;6.38;3.10;;;21.00;99.90;;;;;;5065921;28;20112;-83
2021/07/28 10:04:14;;;;;;;6.60;3.92;;;21.00;99.90;;;;;;5073368;28;20056;-83
2021/07/28 10:06:44;;;;;;;4.55;2.88;;;22.00;99.90;;;;;;5069817;28;20033;-85
2021/07/28 10:09:20;;;;;;;4.07;2.67;;;21.20;99.90;;;;;;5070431;28;20092;-83
2021/07/28 10:11:48;;;;;;;4.28;2.53;;;21.20;99.90;;;;;;5069630;28;20032;-84
2021/07/28 10:14:19;;;;;;;4.38;2.70;;;21.00;99.90;;;;;;5071946;28;20024;-83
2021/07/28 10:16:46;;;;;;;3.58;2.38;;;21.20;99.90;;;;;;5071455;28;20483;-84
2021/07/28 10:19:12;;;;;;;4.05;2.60;;;21.30;99.90;;;;;;5072822;28;20087;-84
2021/07/28 10:21:38;;;;;;;5.28;2.75;;;21.50;99.90;;;;;;5068919;28;20592;-83
2021/07/28 10:24:06;;;;;;;5.57;2.20;;;22.10;99.90;;;;;;5071520;28;20036;-83
2021/07/28 10:26:40;;;;;;;5.30;2.60;;;22.50;99.90;;;;;;5070725;28;20040;-82
2021/07/28 10:29:07;;;;;;;3.22;2.20;;;22.70;99.90;;;;;;5056168;28;20604;-83
2021/07/28 10:31:50;;;;;;;4.43;2.65;;;22.60;99.90;;;;;;5069661;28;20082;-85
2021/07/28 10:34:32;;;;;;;4.30;2.63;;;22.60;99.90;;;;;;5062734;28;20040;-84
2021/07/28 10:37:07;;;;;;;3.58;2.63;;;22.50;99.90;;;;;;5059024;28;20040;-83
2021/07/28 10:39:34;;;;;;;3.72;2.33;;;22.70;99.90;;;;;;5069239;28;20111;-84
2021/07/28 10:42:00;;;;;;;3.85;2.20;;;22.90;99.90;;;;;;5062341;28;20029;-82
2021/07/28 10:44:26;;;;;;;3.63;2.50;;;22.90;99.90;;;;;;5065128;28;20025;-82
2021/07/28 10:46:57;;;;;;;4.35;2.60;;;23.10;99.90;;;;;;5067093;28;20029;-82
2021/07/28 10:49:35;;;;;;;3.88;2.38;;;23.30;99.90;;;;;;5065555;28;20028;-81
2021/07/28 10:52:13;;;;;;;4.05;2.40;;;23.10;99.90;;;;;;5066610;28;20040;-83
2021/07/28 10:57:35;;;;;;;4.85;2.70;;;23.00;99.90;;;;;;5061461;28;20041;-82
2021/07/28 11:00:06;;;;;;;4.18;2.33;;;23.10;99.90;;;;;;5069545;28;20884;-84
2021/07/28 11:02:57;;;;;;;3.35;2.30;;;23.20;99.90;;;;;;5067368;28;20088;-83
2021/07/28 11:05:24;;;;;;;3.72;2.53;;;23.10;99.80;;;;;;5066381;28;20081;-82
2021/07/28 11:07:58;;;;;;;7.03;3.03;;;23.00;99.90;;;;;;5074089;28;20103;-84
2021/07/28 11:10:25;;;;;;;4.82;2.90;;;22.90;99.90;;;;;;5065280;28;20043;-84
2021/07/28 11:12:52;;;;;;;3.88;2.38;;;22.80;99.90;;;;;;5066755;28;20032;-85
2021/07/28 11:15:18;;;;;;;3.58;2.47;;;22.60;99.90;;;;;;5067047;28;20048;-84
2021/07/28 11:17:43;;;;;;;3.72;2.50;;;22.50;99.90;;;;;;5069542;28;20021;-85
2021/07/28 11:20:29;;;;;;;4.45;2.42;;;22.80;99.90;;;;;;5071011;28;20498;-83
2021/07/28 11:23:29;;;;;;;3.50;2.20;;;22.70;99.90;;;;;;5066059;28;20394;-82
2021/07/28 11:25:57;;;;;;;3.45;2.33;;;22.80;99.80;;;;;;5070157;28;20111;-83
2021/07/28 11:28:23;;;;;;;4.30;2.40;;;23.00;99.40;;;;;;5065162;28;20035;-82
2021/07/28 11:30:55;;;;;;;3.78;2.50;;;23.50;98.70;;;;;;5064747;28;20024;-83
2021/07/28 11:33:22;;;;;;;4.03;2.30;;;23.80;98.00;;;;;;5068371;28;20028;-82
2021/07/28 11:35:49;;;;;;;5.05;2.55;;;24.10;97.30;;;;;;5071506;28;20056;-82
2021/07/28 11:38:34;;;;;;;6.70;2.65;;;24.30;97.20;;;;;;5067847;28;20036;-83
2021/07/28 11:41:01;;;;;;;3.75;2.40;;;24.00;97.60;;;;;;5085081;28;20107;-81
2021/07/28 11:43:36;;;;;;;3.75;2.40;;;23.90;97.70;;;;;;5075417;28;20021;-84
2021/07/28 11:46:04;;;;;;;3.90;2.40;;;23.80;97.80;;;;;;5074023;28;20203;-83
2021/07/28 11:48:34;;;;;;;8.65;3.78;;;23.50;98.60;;;;;;5073275;28;20029;-80
2021/07/28 11:51:04;;;;;;;5.35;2.88;;;23.00;99.90;;;;;;5061753;28;20033;-83
2021/07/28 11:53:31;;;;;;;6.82;3.03;;;22.40;99.90;;;;;;5065958;28;20120;-79
2021/07/28 11:56:08;;;;;;;5.70;3.10;;;21.70;99.90;;;;;;5067344;28;20079;-82
2021/07/28 11:58:39;;;;;;;3.53;2.25;;;21.20;99.90;;;;;;5064339;28;20474;-82
2021/07/28 12:01:24;;;;;;;6.05;3.25;;;21.00;99.90;;;;;;5068162;28;20124;-81
2021/07/28 12:04:03;;;;;;;5.38;2.70;;;20.90;99.90;;;;;;5066586;28;20070;-82
2021/07/28 12:06:39;;;;;;;4.80;3.20;;;20.70;99.90;;;;;;5063983;28;20579;-82
2021/07/28 12:09:08;;;;;;;5.00;2.35;;;20.80;99.90;;;;;;5060895;28;20036;-82
2021/07/28 12:12:02;;;;;;;4.63;2.70;;;21.00;99.90;;;;;;5060129;28;20037;-80
2021/07/28 12:14:45;;;;;;;5.82;2.28;;;21.30;99.90;;;;;;5064520;28;20036;-81
2021/07/28 12:17:17;;;;;;;2.95;2.15;;;21.60;99.90;;;;;;5064042;28;20037;-80
2021/07/28 12:19:55;;;;;;;6.38;2.90;;;21.70;99.90;;;;;;5060179;28;20052;-80
2021/07/28 12:22:35;;;;;;;3.58;2.22;;;22.10;99.90;;;;;;5067837;28;20021;-80
2021/07/28 12:25:12;;;;;;;;;;;22.30;99.90;;;;;;5060442;28;20031;-81
2021/07/28 12:27:56;;;;;;;4.80;2.33;;;22.40;99.90;;;;;;5062453;28;19986;-80
2021/07/28 12:30:24;;;;;;;2.58;1.73;;;22.70;99.90;;;;;;5057551;28;20120;-80
2021/07/28 12:33:16;;;;;;;4.93;2.25;;;22.60;99.90;;;;;;5061478;28;20029;-81
2021/07/28 12:35:46;;;;;;;15.82;3.10;;;22.30;99.90;;;;;;5063910;28;20564;-80
2021/07/28 12:38:18;;;;;;;3.40;1.98;;;22.30;99.90;;;;;;5067772;28;20055;-80
2021/07/28 12:40:45;;;;;;;3.85;2.40;;;22.20;99.90;;;;;;5061734;28;20512;-78
2021/07/28 12:43:11;;;;;;;3.35;2.20;;;22.10;99.90;;;;;;5060844;28;20031;-80
2021/07/28 12:45:37;;;;;;;3.60;2.40;;;22.20;99.90;;;;;;5064776;28;20028;-81
2021/07/28 12:48:04;;;;;;;3.67;2.72;;;22.10;99.90;;;;;;5065428;28;20797;-79
2021/07/28 12:50:30;;;;;;;3.92;2.30;;;22.00;99.90;;;;;;5059578;28;20029;-81
2021/07/28 12:52:59;;;;;;;3.92;2.55;;;22.60;99.90;;;;;;5061178;28;20044;-80
2021/07/28 12:55:25;;;;;;;3.38;2.40;;;21.90;99.90;;;;;;5062947;28;20029;-81
2021/07/28 12:57:51;;;;;;;3.67;2.47;;;21.90;99.90;;;;;;5063029;28;20510;-82
2021/07/28 13:00:17;;;;;;;6.03;2.90;;;21.90;99.90;;;;;;5063744;28;20131;-83